sensor_id;sensor_type;location;lat;lon;timestamp;P1;durP1;ratioP1;P2;durP2;ratioP2
64684;SDS011;51109;47.414;18.954;2023-05-10T00:01:09;7.05;;;4.80;;
64684;SDS011;51109;47.414;18.954;2023-05-10T00:03:35;7.00;;;3.92;;
64684;SDS011;51109;47.414;18.954;2023-05-10T00:06:01;4.80;;;4.22;;
64684;SDS011;51109;47.414;18.954;2023-05-10T00:08:27;6.80;;;4.25;;
64684;SDS011;51109;47.414;18.954;2023-05-10T00:10:53;4.78;;;4.15;;
64684;SDS011;51109;47.414;18.954;2023-05-10T00:13:18;6.07;;;4.63;;
64684;SDS011;51109;47.414;18.954;2023-05-10T00:15:44;5.30;;;4.80;;
64684;SDS011;51109;47.414;18.954;2023-05-10T00:18:10;6.80;;;4.90;;
64684;SDS011;51109;47.414;18.954;2023-05-10T00:20:36;6.95;;;5.35;;
64684;SDS011;51109;47.414;18.954;2023-05-10T00:23:02;6.70;;;4.65;;
64684;SDS011;51109;47.414;18.954;2023-05-10T00:25:28;5.82;;;5.22;;
64684;SDS011;51109;47.414;18.954;2023-05-10T00:27:54;9.23;;;5.13;;
64684;SDS011;51109;47.414;18.954;2023-05-10T00:30:23;6.30;;;5.15;;
64684;SDS011;51109;47.414;18.954;2023-05-10T00:32:49;7.30;;;5.22;;
64684;SDS011;51109;47.414;18.954;2023-05-10T00:35:16;9.65;;;5.68;;
64684;SDS011;51109;47.414;18.954;2023-05-10T00:37:42;9.15;;;5.10;;
64684;SDS011;51109;47.414;18.954;2023-05-10T00:40:08;5.72;;;5.22;;
64684;SDS011;51109;47.414;18.954;2023-05-10T00:42:34;5.68;;;5.07;;
64684;SDS011;51109;47.414;18.954;2023-05-10T00:45:00;6.43;;;5.53;;
64684;SDS011;51109;47.414;18.954;2023-05-10T00:47:27;6.97;;;5.90;;
64684;SDS011;51109;47.414;18.954;2023-05-10T00:49:53;10.95;;;5.57;;
64684;SDS011;51109;47.414;18.954;2023-05-10T00:52:19;7.43;;;5.72;;
64684;SDS011;51109;47.414;18.954;2023-05-10T00:54:45;12.13;;;6.32;;
64684;SDS011;51109;47.414;18.954;2023-05-10T00:57:12;8.07;;;6.47;;
64684;SDS011;51109;47.414;18.954;2023-05-10T00:59:38;7.93;;;5.85;;
64684;SDS011;51109;47.414;18.954;2023-05-10T01:02:05;7.82;;;5.75;;
64684;SDS011;51109;47.414;18.954;2023-05-10T01:04:31;6.65;;;5.95;;
64684;SDS011;51109;47.414;18.954;2023-05-10T01:06:58;8.23;;;6.20;;
64684;SDS011;51109;47.414;18.954;2023-05-10T01:09:24;6.97;;;5.78;;
64684;SDS011;51109;47.414;18.954;2023-05-10T01:11:51;9.57;;;6.30;;
64684;SDS011;51109;47.414;18.954;2023-05-10T01:14:18;10.40;;;5.85;;
64684;SDS011;51109;47.414;18.954;2023-05-10T01:16:45;12.27;;;6.40;;
64684;SDS011;51109;47.414;18.954;2023-05-10T01:19:18;7.80;;;6.18;;
64684;SDS011;51109;47.414;18.954;2023-05-10T01:32:25;8.55;;;6.05;;
64684;SDS011;51109;47.414;18.954;2023-05-10T01:37:52;10.32;;;6.55;;
64684;SDS011;51109;47.414;18.954;2023-05-10T01:40:35;10.15;;;6.25;;
64684;SDS011;51109;47.414;18.954;2023-05-10T01:43:04;7.45;;;6.22;;
64684;SDS011;51109;47.414;18.954;2023-05-10T01:45:41;7.80;;;6.50;;
64684;SDS011;51109;47.414;18.954;2023-05-10T01:48:19;7.30;;;6.00;;
64684;SDS011;51109;47.414;18.954;2023-05-10T01:50:47;8.40;;;6.53;;
64684;SDS011;51109;47.414;18.954;2023-05-10T01:53:17;8.85;;;6.38;;
64684;SDS011;51109;47.414;18.954;2023-05-10T01:55:49;6.40;;;5.70;;
64684;SDS011;51109;47.414;18.954;2023-05-10T01:58:30;7.65;;;5.97;;
64684;SDS011;51109;47.414;18.954;2023-05-10T02:00:58;8.60;;;5.43;;
64684;SDS011;51109;47.414;18.954;2023-05-10T02:03:27;9.18;;;6.50;;
64684;SDS011;51109;47.414;18.954;2023-05-10T02:05:55;7.13;;;5.75;;
64684;SDS011;51109;47.414;18.954;2023-05-10T02:08:22;8.23;;;5.90;;
64684;SDS011;51109;47.414;18.954;2023-05-10T02:10:50;7.50;;;5.55;;
64684;SDS011;51109;47.414;18.954;2023-05-10T02:13:18;11.60;;;6.85;;
64684;SDS011;51109;47.414;18.954;2023-05-10T02:15:46;7.38;;;6.03;;
64684;SDS011;51109;47.414;18.954;2023-05-10T02:18:13;8.05;;;5.70;;
64684;SDS011;51109;47.414;18.954;2023-05-10T02:20:41;8.68;;;5.85;;
64684;SDS011;51109;47.414;18.954;2023-05-10T02:23:10;8.15;;;6.88;;
64684;SDS011;51109;47.414;18.954;2023-05-10T02:25:37;8.32;;;6.05;;
64684;SDS011;51109;47.414;18.954;2023-05-10T02:28:04;6.30;;;5.65;;
64684;SDS011;51109;47.414;18.954;2023-05-10T02:30:32;7.50;;;6.22;;
64684;SDS011;51109;47.414;18.954;2023-05-10T02:32:59;9.20;;;5.97;;
64684;SDS011;51109;47.414;18.954;2023-05-10T02:35:28;8.38;;;5.70;;
64684;SDS011;51109;47.414;18.954;2023-05-10T02:37:55;10.15;;;5.88;;
64684;SDS011;51109;47.414;18.954;2023-05-10T02:40:23;7.88;;;6.15;;
64684;SDS011;51109;47.414;18.954;2023-05-10T02:42:52;7.75;;;5.63;;
64684;SDS011;51109;47.414;18.954;2023-05-10T02:45:23;11.07;;;6.40;;
64684;SDS011;51109;47.414;18.954;2023-05-10T02:47:53;6.28;;;5.68;;
64684;SDS011;51109;47.414;18.954;2023-05-10T02:50:19;6.65;;;5.28;;
64684;SDS011;51109;47.414;18.954;2023-05-10T02:52:47;7.97;;;5.60;;
64684;SDS011;51109;47.414;18.954;2023-05-10T02:55:17;7.32;;;5.65;;
64684;SDS011;51109;47.414;18.954;2023-05-10T02:57:48;6.65;;;5.38;;
64684;SDS011;51109;47.414;18.954;2023-05-10T03:05:55;8.73;;;5.47;;
64684;SDS011;51109;47.414;18.954;2023-05-10T03:08:23;7.47;;;5.93;;
64684;SDS011;51109;47.414;18.954;2023-05-10T03:17:22;8.40;;;5.82;;
64684;SDS011;51109;47.414;18.954;2023-05-10T03:19:55;7.30;;;5.95;;
64684;SDS011;51109;47.414;18.954;2023-05-10T03:22:25;9.80;;;6.50;;
64684;SDS011;51109;47.414;18.954;2023-05-10T03:25:05;9.57;;;7.28;;
64684;SDS011;51109;47.414;18.954;2023-05-10T03:27:33;8.52;;;7.70;;
64684;SDS011;51109;47.414;18.954;2023-05-10T03:30:02;12.32;;;6.38;;
64684;SDS011;51109;47.414;18.954;2023-05-10T03:32:30;10.73;;;6.90;;
64684;SDS011;51109;47.414;18.954;2023-05-10T03:34:58;10.98;;;7.10;;
64684;SDS011;51109;47.414;18.954;2023-05-10T03:37:23;7.10;;;6.10;;
64684;SDS011;51109;47.414;18.954;2023-05-10T03:39:49;8.23;;;6.63;;
64684;SDS011;51109;47.414;18.954;2023-05-10T03:42:15;11.90;;;6.63;;
64684;SDS011;51109;47.414;18.954;2023-05-10T03:44:42;10.98;;;6.85;;
64684;SDS011;51109;47.414;18.954;2023-05-10T03:47:08;9.15;;;6.38;;
64684;SDS011;51109;47.414;18.954;2023-05-10T03:49:34;11.07;;;6.95;;
64684;SDS011;51109;47.414;18.954;2023-05-10T03:52:00;9.45;;;6.00;;
64684;SDS011;51109;47.414;18.954;2023-05-10T03:54:26;7.63;;;6.07;;
64684;SDS011;51109;47.414;18.954;2023-05-10T03:56:52;8.32;;;6.95;;
64684;SDS011;51109;47.414;18.954;2023-05-10T03:59:18;8.13;;;6.93;;
64684;SDS011;51109;47.414;18.954;2023-05-10T04:01:44;9.93;;;6.68;;
64684;SDS011;51109;47.414;18.954;2023-05-10T04:04:09;8.52;;;6.65;;
64684;SDS011;51109;47.414;18.954;2023-05-10T04:06:35;10.25;;;6.57;;
64684;SDS011;51109;47.414;18.954;2023-05-10T04:09:02;7.82;;;5.88;;
64684;SDS011;51109;47.414;18.954;2023-05-10T04:11:29;10.02;;;6.40;;
64684;SDS011;51109;47.414;18.954;2023-05-10T04:13:55;6.90;;;6.15;;
64684;SDS011;51109;47.414;18.954;2023-05-10T04:16:21;10.60;;;6.80;;
64684;SDS011;51109;47.414;18.954;2023-05-10T04:18:47;7.85;;;6.97;;
64684;SDS011;51109;47.414;18.954;2023-05-10T04:21:14;9.02;;;6.88;;
64684;SDS011;51109;47.414;18.954;2023-05-10T04:23:40;9.90;;;6.63;;
64684;SDS011;51109;47.414;18.954;2023-05-10T04:26:06;7.60;;;6.35;;
64684;SDS011;51109;47.414;18.954;2023-05-10T04:28:32;10.10;;;6.30;;
64684;SDS011;51109;47.414;18.954;2023-05-10T04:31:07;6.88;;;6.18;;
64684;SDS011;51109;47.414;18.954;2023-05-10T04:33:35;10.57;;;7.03;;
64684;SDS011;51109;47.414;18.954;2023-05-10T04:36:01;7.47;;;5.65;;
64684;SDS011;51109;47.414;18.954;2023-05-10T04:38:28;11.43;;;6.47;;
64684;SDS011;51109;47.414;18.954;2023-05-10T04:40:54;6.95;;;6.15;;
64684;SDS011;51109;47.414;18.954;2023-05-10T04:43:28;10.43;;;6.38;;
64684;SDS011;51109;47.414;18.954;2023-05-10T04:45:56;9.07;;;6.45;;
64684;SDS011;51109;47.414;18.954;2023-05-10T04:48:22;9.15;;;6.60;;
64684;SDS011;51109;47.414;18.954;2023-05-10T04:50:48;6.63;;;5.82;;
64684;SDS011;51109;47.414;18.954;2023-05-10T04:53:14;9.25;;;6.07;;
64684;SDS011;51109;47.414;18.954;2023-05-10T04:55:39;8.70;;;5.72;;
64684;SDS011;51109;47.414;18.954;2023-05-10T04:58:05;8.98;;;7.10;;
64684;SDS011;51109;47.414;18.954;2023-05-10T05:00:37;7.40;;;6.03;;
64684;SDS011;51109;47.414;18.954;2023-05-10T05:03:03;7.38;;;5.15;;
64684;SDS011;51109;47.414;18.954;2023-05-10T05:05:29;6.50;;;5.82;;
64684;SDS011;51109;47.414;18.954;2023-05-10T05:07:55;9.93;;;6.00;;
64684;SDS011;51109;47.414;18.954;2023-05-10T05:10:21;7.97;;;5.85;;
64684;SDS011;51109;47.414;18.954;2023-05-10T05:12:47;6.50;;;5.72;;
64684;SDS011;51109;47.414;18.954;2023-05-10T05:15:13;9.90;;;6.13;;
64684;SDS011;51109;47.414;18.954;2023-05-10T05:17:40;7.55;;;6.13;;
64684;SDS011;51109;47.414;18.954;2023-05-10T05:20:06;6.43;;;5.82;;
64684;SDS011;51109;47.414;18.954;2023-05-10T05:22:33;8.35;;;6.15;;
64684;SDS011;51109;47.414;18.954;2023-05-10T05:24:59;10.73;;;6.50;;
64684;SDS011;51109;47.414;18.954;2023-05-10T05:27:25;8.32;;;5.72;;
64684;SDS011;51109;47.414;18.954;2023-05-10T05:29:53;14.23;;;5.65;;
64684;SDS011;51109;47.414;18.954;2023-05-10T05:32:19;9.60;;;6.10;;
64684;SDS011;51109;47.414;18.954;2023-05-10T05:34:45;9.20;;;5.53;;
64684;SDS011;51109;47.414;18.954;2023-05-10T05:37:14;6.10;;;4.70;;
64684;SDS011;51109;47.414;18.954;2023-05-10T05:39:41;6.60;;;4.97;;
64684;SDS011;51109;47.414;18.954;2023-05-10T05:42:08;15.32;;;5.40;;
64684;SDS011;51109;47.414;18.954;2023-05-10T05:44:34;5.95;;;4.75;;
64684;SDS011;51109;47.414;18.954;2023-05-10T05:47:00;7.10;;;4.60;;
64684;SDS011;51109;47.414;18.954;2023-05-10T05:49:26;8.50;;;4.97;;
64684;SDS011;51109;47.414;18.954;2023-05-10T05:51:51;11.30;;;7.65;;
64684;SDS011;51109;47.414;18.954;2023-05-10T05:54:17;11.82;;;6.10;;
64684;SDS011;51109;47.414;18.954;2023-05-10T05:56:43;9.90;;;6.07;;
64684;SDS011;51109;47.414;18.954;2023-05-10T05:59:10;12.55;;;6.10;;
64684;SDS011;51109;47.414;18.954;2023-05-10T06:01:36;6.93;;;5.20;;
64684;SDS011;51109;47.414;18.954;2023-05-10T06:04:02;8.48;;;5.57;;
64684;SDS011;51109;47.414;18.954;2023-05-10T06:06:28;7.68;;;5.82;;
64684;SDS011;51109;47.414;18.954;2023-05-10T06:08:54;8.88;;;5.97;;
64684;SDS011;51109;47.414;18.954;2023-05-10T06:11:20;8.55;;;5.85;;
64684;SDS011;51109;47.414;18.954;2023-05-10T06:13:46;6.10;;;5.35;;
64684;SDS011;51109;47.414;18.954;2023-05-10T06:16:12;7.68;;;5.53;;
64684;SDS011;51109;47.414;18.954;2023-05-10T06:18:39;11.65;;;5.47;;
64684;SDS011;51109;47.414;18.954;2023-05-10T06:21:05;9.73;;;5.00;;
64684;SDS011;51109;47.414;18.954;2023-05-10T06:23:30;6.22;;;5.40;;
64684;SDS011;51109;47.414;18.954;2023-05-10T06:25:56;5.35;;;4.85;;
64684;SDS011;51109;47.414;18.954;2023-05-10T06:28:22;6.43;;;4.25;;
64684;SDS011;51109;47.414;18.954;2023-05-10T06:30:48;9.45;;;5.80;;
64684;SDS011;51109;47.414;18.954;2023-05-10T06:33:16;8.25;;;5.53;;
64684;SDS011;51109;47.414;18.954;2023-05-10T06:35:42;12.07;;;5.47;;
64684;SDS011;51109;47.414;18.954;2023-05-10T06:38:08;5.97;;;5.20;;
64684;SDS011;51109;47.414;18.954;2023-05-10T06:40:34;6.38;;;5.28;;
64684;SDS011;51109;47.414;18.954;2023-05-10T06:43:01;7.05;;;5.03;;
64684;SDS011;51109;47.414;18.954;2023-05-10T06:45:26;5.55;;;4.85;;
64684;SDS011;51109;47.414;18.954;2023-05-10T06:47:52;5.20;;;4.70;;
64684;SDS011;51109;47.414;18.954;2023-05-10T06:50:19;5.68;;;4.72;;
64684;SDS011;51109;47.414;18.954;2023-05-10T06:52:45;6.38;;;4.85;;
64684;SDS011;51109;47.414;18.954;2023-05-10T06:55:31;9.48;;;5.28;;
64684;SDS011;51109;47.414;18.954;2023-05-10T06:57:57;7.30;;;4.43;;
64684;SDS011;51109;47.414;18.954;2023-05-10T07:00:23;6.85;;;4.88;;
64684;SDS011;51109;47.414;18.954;2023-05-10T07:02:49;6.97;;;4.95;;
64684;SDS011;51109;47.414;18.954;2023-05-10T07:05:14;8.60;;;5.05;;
64684;SDS011;51109;47.414;18.954;2023-05-10T07:07:40;6.55;;;4.88;;
64684;SDS011;51109;47.414;18.954;2023-05-10T07:10:06;6.50;;;5.10;;
64684;SDS011;51109;47.414;18.954;2023-05-10T07:12:33;6.25;;;4.55;;
64684;SDS011;51109;47.414;18.954;2023-05-10T07:14:59;6.55;;;4.75;;
64684;SDS011;51109;47.414;18.954;2023-05-10T07:17:25;7.82;;;4.50;;
64684;SDS011;51109;47.414;18.954;2023-05-10T07:19:50;5.88;;;4.60;;
64684;SDS011;51109;47.414;18.954;2023-05-10T07:22:17;7.45;;;5.10;;
64684;SDS011;51109;47.414;18.954;2023-05-10T07:24:43;6.47;;;4.20;;
64684;SDS011;51109;47.414;18.954;2023-05-10T07:27:09;7.43;;;4.80;;
64684;SDS011;51109;47.414;18.954;2023-05-10T07:29:35;5.00;;;4.40;;
64684;SDS011;51109;47.414;18.954;2023-05-10T07:32:01;6.18;;;4.10;;
64684;SDS011;51109;47.414;18.954;2023-05-10T07:34:27;6.78;;;4.60;;
64684;SDS011;51109;47.414;18.954;2023-05-10T07:36:55;17.77;;;5.20;;
64684;SDS011;51109;47.414;18.954;2023-05-10T07:39:22;6.57;;;4.40;;
64684;SDS011;51109;47.414;18.954;2023-05-10T07:41:48;8.70;;;5.05;;
64684;SDS011;51109;47.414;18.954;2023-05-10T07:44:14;4.68;;;4.15;;
64684;SDS011;51109;47.414;18.954;2023-05-10T07:46:43;4.60;;;3.72;;
64684;SDS011;51109;47.414;18.954;2023-05-10T07:49:09;5.18;;;3.83;;
64684;SDS011;51109;47.414;18.954;2023-05-10T07:51:35;9.98;;;4.40;;
64684;SDS011;51109;47.414;18.954;2023-05-10T07:54:00;6.55;;;3.92;;
64684;SDS011;51109;47.414;18.954;2023-05-10T07:56:28;4.53;;;3.70;;
64684;SDS011;51109;47.414;18.954;2023-05-10T07:58:57;9.85;;;3.67;;
64684;SDS011;51109;47.414;18.954;2023-05-10T08:01:32;6.22;;;3.92;;
64684;SDS011;51109;47.414;18.954;2023-05-10T08:04:00;3.75;;;3.45;;
64684;SDS011;51109;47.414;18.954;2023-05-10T08:06:26;5.35;;;3.85;;
64684;SDS011;51109;47.414;18.954;2023-05-10T08:08:55;5.97;;;3.42;;
64684;SDS011;51109;47.414;18.954;2023-05-10T08:11:21;6.07;;;4.35;;
64684;SDS011;51109;47.414;18.954;2023-05-10T08:13:47;6.22;;;4.10;;
64684;SDS011;51109;47.414;18.954;2023-05-10T08:16:15;4.72;;;4.18;;
64684;SDS011;51109;47.414;18.954;2023-05-10T08:18:42;5.63;;;3.80;;
64684;SDS011;51109;47.414;18.954;2023-05-10T08:21:12;5.20;;;3.50;;
64684;SDS011;51109;47.414;18.954;2023-05-10T08:23:39;7.10;;;3.53;;
64684;SDS011;51109;47.414;18.954;2023-05-10T08:26:05;4.35;;;3.40;;
64684;SDS011;51109;47.414;18.954;2023-05-10T08:28:31;3.50;;;3.20;;
64684;SDS011;51109;47.414;18.954;2023-05-10T08:30:57;8.43;;;4.38;;
64684;SDS011;51109;47.414;18.954;2023-05-10T08:33:23;4.88;;;3.72;;
64684;SDS011;51109;47.414;18.954;2023-05-10T08:35:49;4.55;;;3.53;;
64684;SDS011;51109;47.414;18.954;2023-05-10T08:38:14;4.28;;;3.83;;
64684;SDS011;51109;47.414;18.954;2023-05-10T08:40:41;3.60;;;3.25;;
64684;SDS011;51109;47.414;18.954;2023-05-10T08:43:09;4.97;;;3.70;;
64684;SDS011;51109;47.414;18.954;2023-05-10T08:45:37;3.90;;;3.53;;
64684;SDS011;51109;47.414;18.954;2023-05-10T08:48:07;4.07;;;3.67;;
64684;SDS011;51109;47.414;18.954;2023-05-10T08:50:38;3.70;;;3.40;;
64684;SDS011;51109;47.414;18.954;2023-05-10T08:53:06;6.28;;;3.50;;
64684;SDS011;51109;47.414;18.954;2023-05-10T08:55:35;6.20;;;4.15;;
64684;SDS011;51109;47.414;18.954;2023-05-10T08:58:05;6.82;;;3.83;;
64684;SDS011;51109;47.414;18.954;2023-05-10T09:00:32;3.85;;;3.55;;
64684;SDS011;51109;47.414;18.954;2023-05-10T09:02:58;5.30;;;3.67;;
64684;SDS011;51109;47.414;18.954;2023-05-10T09:05:25;4.47;;;3.47;;
64684;SDS011;51109;47.414;18.954;2023-05-10T09:07:51;6.95;;;3.25;;
64684;SDS011;51109;47.414;18.954;2023-05-10T09:10:18;5.32;;;3.88;;
64684;SDS011;51109;47.414;18.954;2023-05-10T09:12:44;3.88;;;3.55;;
64684;SDS011;51109;47.414;18.954;2023-05-10T09:15:11;3.95;;;3.55;;
64684;SDS011;51109;47.414;18.954;2023-05-10T09:17:39;4.85;;;4.07;;
64684;SDS011;51109;47.414;18.954;2023-05-10T09:20:06;8.63;;;3.50;;
64684;SDS011;51109;47.414;18.954;2023-05-10T09:22:33;3.85;;;3.55;;
64684;SDS011;51109;47.414;18.954;2023-05-10T09:27:39;6.00;;;3.13;;
64684;SDS011;51109;47.414;18.954;2023-05-10T09:30:06;3.90;;;3.10;;
64684;SDS011;51109;47.414;18.954;2023-05-10T09:32:40;4.25;;;2.88;;
64684;SDS011;51109;47.414;18.954;2023-05-10T09:35:14;3.83;;;3.45;;
64684;SDS011;51109;47.414;18.954;2023-05-10T09:37:42;4.47;;;4.07;;
64684;SDS011;51109;47.414;18.954;2023-05-10T09:40:15;8.43;;;3.08;;
64684;SDS011;51109;47.414;18.954;2023-05-10T09:42:50;3.40;;;3.10;;
64684;SDS011;51109;47.414;18.954;2023-05-10T09:45:26;4.50;;;3.33;;
64684;SDS011;51109;47.414;18.954;2023-05-10T09:47:53;5.07;;;3.30;;
64684;SDS011;51109;47.414;18.954;2023-05-10T09:50:19;5.05;;;3.80;;
64684;SDS011;51109;47.414;18.954;2023-05-10T09:52:56;11.63;;;3.70;;
64684;SDS011;51109;47.414;18.954;2023-05-10T09:55:24;7.45;;;3.78;;
64684;SDS011;51109;47.414;18.954;2023-05-10T09:58:00;5.03;;;3.15;;
64684;SDS011;51109;47.414;18.954;2023-05-10T10:00:27;3.90;;;3.50;;
64684;SDS011;51109;47.414;18.954;2023-05-10T10:02:59;5.40;;;3.15;;
64684;SDS011;51109;47.414;18.954;2023-05-10T10:05:32;3.30;;;3.00;;
64684;SDS011;51109;47.414;18.954;2023-05-10T10:07:59;3.50;;;3.20;;
64684;SDS011;51109;47.414;18.954;2023-05-10T10:10:26;4.90;;;3.75;;
64684;SDS011;51109;47.414;18.954;2023-05-10T10:12:53;5.43;;;3.28;;
64684;SDS011;51109;47.414;18.954;2023-05-10T10:15:20;7.50;;;4.00;;
64684;SDS011;51109;47.414;18.954;2023-05-10T10:17:47;5.63;;;3.30;;
64684;SDS011;51109;47.414;18.954;2023-05-10T10:20:14;3.22;;;2.95;;
64684;SDS011;51109;47.414;18.954;2023-05-10T10:22:41;4.82;;;3.28;;
64684;SDS011;51109;47.414;18.954;2023-05-10T10:25:09;4.43;;;3.08;;
64684;SDS011;51109;47.414;18.954;2023-05-10T10:36:11;3.17;;;2.83;;
64684;SDS011;51109;47.414;18.954;2023-05-10T10:42:13;3.40;;;2.78;;
64684;SDS011;51109;47.414;18.954;2023-05-10T10:47:00;3.88;;;2.80;;
64684;SDS011;51109;47.414;18.954;2023-05-10T10:49:51;7.22;;;3.05;;
64684;SDS011;51109;47.414;18.954;2023-05-10T10:52:28;2.67;;;2.28;;
64684;SDS011;51109;47.414;18.954;2023-05-10T10:55:03;3.25;;;2.65;;
64684;SDS011;51109;47.414;18.954;2023-05-10T10:57:33;4.30;;;2.28;;
64684;SDS011;51109;47.414;18.954;2023-05-10T11:00:21;3.75;;;2.08;;
64684;SDS011;51109;47.414;18.954;2023-05-10T11:02:59;3.90;;;2.63;;
64684;SDS011;51109;47.414;18.954;2023-05-10T11:05:38;3.03;;;2.50;;
64684;SDS011;51109;47.414;18.954;2023-05-10T11:08:16;3.60;;;2.65;;
64684;SDS011;51109;47.414;18.954;2023-05-10T11:13:28;3.30;;;2.55;;
64684;SDS011;51109;47.414;18.954;2023-05-10T11:15:55;2.42;;;2.20;;
64684;SDS011;51109;47.414;18.954;2023-05-10T11:18:27;2.50;;;2.17;;
64684;SDS011;51109;47.414;18.954;2023-05-10T11:21:01;3.30;;;2.42;;
64684;SDS011;51109;47.414;18.954;2023-05-10T11:23:52;2.72;;;2.47;;
64684;SDS011;51109;47.414;18.954;2023-05-10T11:26:16;3.60;;;1.92;;
64684;SDS011;51109;47.414;18.954;2023-05-10T11:28:46;5.57;;;2.50;;
64684;SDS011;51109;47.414;18.954;2023-05-10T11:31:14;3.78;;;2.70;;
64684;SDS011;51109;47.414;18.954;2023-05-10T11:36:17;2.60;;;2.40;;
64684;SDS011;51109;47.414;18.954;2023-05-10T11:38:44;3.20;;;2.30;;
64684;SDS011;51109;47.414;18.954;2023-05-10T11:41:11;2.50;;;2.25;;
64684;SDS011;51109;47.414;18.954;2023-05-10T11:43:40;4.43;;;2.30;;
64684;SDS011;51109;47.414;18.954;2023-05-10T11:46:07;2.88;;;1.90;;
64684;SDS011;51109;47.414;18.954;2023-05-10T11:48:36;3.60;;;1.90;;
64684;SDS011;51109;47.414;18.954;2023-05-10T11:51:03;2.05;;;1.58;;
64684;SDS011;51109;47.414;18.954;2023-05-10T11:53:30;3.28;;;2.10;;
64684;SDS011;51109;47.414;18.954;2023-05-10T11:56:07;2.38;;;2.10;;
64684;SDS011;51109;47.414;18.954;2023-05-10T11:58:34;3.00;;;2.05;;
64684;SDS011;51109;47.414;18.954;2023-05-10T12:01:01;2.33;;;1.88;;
64684;SDS011;51109;47.414;18.954;2023-05-10T12:03:28;2.22;;;2.03;;
64684;SDS011;51109;47.414;18.954;2023-05-10T12:05:55;2.60;;;1.67;;
64684;SDS011;51109;47.414;18.954;2023-05-10T12:08:25;2.58;;;2.10;;
64684;SDS011;51109;47.414;18.954;2023-05-10T12:10:53;4.63;;;2.10;;
64684;SDS011;51109;47.414;18.954;2023-05-10T12:13:28;2.08;;;1.85;;
64684;SDS011;51109;47.414;18.954;2023-05-10T12:15:56;4.03;;;2.08;;
64684;SDS011;51109;47.414;18.954;2023-05-10T12:18:23;4.30;;;2.05;;
64684;SDS011;51109;47.414;18.954;2023-05-10T12:20:53;4.47;;;2.30;;
64684;SDS011;51109;47.414;18.954;2023-05-10T12:23:20;4.88;;;2.40;;
64684;SDS011;51109;47.414;18.954;2023-05-10T12:25:46;3.85;;;2.40;;
64684;SDS011;51109;47.414;18.954;2023-05-10T12:28:12;2.30;;;2.10;;
64684;SDS011;51109;47.414;18.954;2023-05-10T12:30:38;2.28;;;2.08;;
64684;SDS011;51109;47.414;18.954;2023-05-10T12:33:08;5.22;;;2.20;;
64684;SDS011;51109;47.414;18.954;2023-05-10T12:35:45;4.22;;;2.17;;
64684;SDS011;51109;47.414;18.954;2023-05-10T12:40:50;5.70;;;2.05;;
64684;SDS011;51109;47.414;18.954;2023-05-10T12:43:16;2.42;;;2.22;;
64684;SDS011;51109;47.414;18.954;2023-05-10T12:45:41;3.88;;;2.33;;
64684;SDS011;51109;47.414;18.954;2023-05-10T12:48:07;3.33;;;1.65;;
64684;SDS011;51109;47.414;18.954;2023-05-10T12:50:33;3.08;;;1.73;;
64684;SDS011;51109;47.414;18.954;2023-05-10T12:52:59;7.20;;;2.30;;
64684;SDS011;51109;47.414;18.954;2023-05-10T12:55:25;5.68;;;2.25;;
64684;SDS011;51109;47.414;18.954;2023-05-10T12:57:51;2.05;;;1.70;;
64684;SDS011;51109;47.414;18.954;2023-05-10T13:00:17;4.88;;;2.03;;
64684;SDS011;51109;47.414;18.954;2023-05-10T13:02:43;2.72;;;1.90;;
64684;SDS011;51109;47.414;18.954;2023-05-10T13:05:09;3.05;;;1.83;;
64684;SDS011;51109;47.414;18.954;2023-05-10T13:07:34;5.70;;;1.98;;
64684;SDS011;51109;47.414;18.954;2023-05-10T13:10:00;1.77;;;1.50;;
64684;SDS011;51109;47.414;18.954;2023-05-10T13:12:26;3.80;;;1.90;;
64684;SDS011;51109;47.414;18.954;2023-05-10T13:14:52;3.75;;;2.00;;
64684;SDS011;51109;47.414;18.954;2023-05-10T13:17:18;1.83;;;1.70;;
64684;SDS011;51109;47.414;18.954;2023-05-10T13:19:44;13.15;;;2.08;;
64684;SDS011;51109;47.414;18.954;2023-05-10T13:22:10;3.63;;;1.45;;
64684;SDS011;51109;47.414;18.954;2023-05-10T13:24:36;2.13;;;1.80;;
64684;SDS011;51109;47.414;18.954;2023-05-10T13:27:01;3.33;;;1.92;;
64684;SDS011;51109;47.414;18.954;2023-05-10T13:29:27;4.07;;;1.60;;
64684;SDS011;51109;47.414;18.954;2023-05-10T13:31:53;2.60;;;1.60;;
64684;SDS011;51109;47.414;18.954;2023-05-10T13:34:19;6.43;;;2.28;;
64684;SDS011;51109;47.414;18.954;2023-05-10T13:36:46;3.97;;;1.65;;
64684;SDS011;51109;47.414;18.954;2023-05-10T13:39:12;1.98;;;1.70;;
64684;SDS011;51109;47.414;18.954;2023-05-10T13:41:38;3.22;;;1.88;;
64684;SDS011;51109;47.414;18.954;2023-05-10T13:44:03;2.42;;;1.52;;
64684;SDS011;51109;47.414;18.954;2023-05-10T13:46:29;2.20;;;1.50;;
64684;SDS011;51109;47.414;18.954;2023-05-10T13:48:56;3.03;;;1.63;;
64684;SDS011;51109;47.414;18.954;2023-05-10T13:51:22;2.38;;;1.35;;
64684;SDS011;51109;47.414;18.954;2023-05-10T13:53:48;2.03;;;1.80;;
64684;SDS011;51109;47.414;18.954;2023-05-10T13:56:14;2.22;;;2.03;;
64684;SDS011;51109;47.414;18.954;2023-05-10T13:58:39;2.33;;;1.48;;
64684;SDS011;51109;47.414;18.954;2023-05-10T14:01:06;2.25;;;1.83;;
64684;SDS011;51109;47.414;18.954;2023-05-10T14:03:32;2.95;;;1.95;;
64684;SDS011;51109;47.414;18.954;2023-05-10T14:05:58;4.30;;;1.85;;
64684;SDS011;51109;47.414;18.954;2023-05-10T14:08:24;1.73;;;1.63;;
64684;SDS011;51109;47.414;18.954;2023-05-10T14:10:52;2.08;;;1.85;;
64684;SDS011;51109;47.414;18.954;2023-05-10T14:13:18;2.33;;;1.90;;
64684;SDS011;51109;47.414;18.954;2023-05-10T14:15:43;4.57;;;2.30;;
64684;SDS011;51109;47.414;18.954;2023-05-10T14:18:09;1.80;;;1.70;;
64684;SDS011;51109;47.414;18.954;2023-05-10T14:20:35;2.92;;;1.52;;
64684;SDS011;51109;47.414;18.954;2023-05-10T14:23:01;2.33;;;1.98;;
64684;SDS011;51109;47.414;18.954;2023-05-10T14:25:27;1.65;;;1.55;;
64684;SDS011;51109;47.414;18.954;2023-05-10T14:27:53;2.67;;;1.77;;
64684;SDS011;51109;47.414;18.954;2023-05-10T14:30:20;3.05;;;1.45;;
64684;SDS011;51109;47.414;18.954;2023-05-10T14:32:45;5.38;;;1.95;;
64684;SDS011;51109;47.414;18.954;2023-05-10T14:35:11;2.92;;;1.77;;
64684;SDS011;51109;47.414;18.954;2023-05-10T14:37:38;2.28;;;1.45;;
64684;SDS011;51109;47.414;18.954;2023-05-10T14:40:04;1.55;;;1.45;;
64684;SDS011;51109;47.414;18.954;2023-05-10T14:42:31;2.53;;;1.90;;
64684;SDS011;51109;47.414;18.954;2023-05-10T14:44:57;4.50;;;1.80;;
64684;SDS011;51109;47.414;18.954;2023-05-10T14:47:23;2.95;;;1.55;;
64684;SDS011;51109;47.414;18.954;2023-05-10T14:49:49;2.92;;;1.70;;
64684;SDS011;51109;47.414;18.954;2023-05-10T14:52:15;2.60;;;1.60;;
64684;SDS011;51109;47.414;18.954;2023-05-10T14:54:41;2.42;;;1.60;;
64684;SDS011;51109;47.414;18.954;2023-05-10T14:57:07;4.10;;;1.83;;
64684;SDS011;51109;47.414;18.954;2023-05-10T14:59:33;4.88;;;1.35;;
64684;SDS011;51109;47.414;18.954;2023-05-10T15:01:59;4.50;;;1.60;;
64684;SDS011;51109;47.414;18.954;2023-05-10T15:04:24;1.83;;;1.67;;
64684;SDS011;51109;47.414;18.954;2023-05-10T15:06:50;2.50;;;1.48;;
64684;SDS011;51109;47.414;18.954;2023-05-10T15:09:16;3.20;;;1.63;;
64684;SDS011;51109;47.414;18.954;2023-05-10T15:11:42;4.15;;;1.60;;
64684;SDS011;51109;47.414;18.954;2023-05-10T15:14:09;3.17;;;1.52;;
64684;SDS011;51109;47.414;18.954;2023-05-10T15:16:35;3.80;;;1.85;;
64684;SDS011;51109;47.414;18.954;2023-05-10T15:19:01;4.15;;;1.70;;
64684;SDS011;51109;47.414;18.954;2023-05-10T15:21:26;2.75;;;1.85;;
64684;SDS011;51109;47.414;18.954;2023-05-10T15:23:52;4.88;;;3.13;;
64684;SDS011;51109;47.414;18.954;2023-05-10T15:26:19;11.35;;;6.50;;